createdAt,value
2023-12-10T00:01:49.005Z,8.90
2023-12-10T00:04:16.913Z,9.50
2023-12-10T00:06:46.335Z,9.00
2023-12-10T00:09:14.467Z,9.20
2023-12-10T00:11:44.029Z,9.37
2023-12-10T00:14:14.507Z,9.07
2023-12-10T00:16:44.996Z,8.47
2023-12-10T00:19:14.164Z,8.90
2023-12-10T00:21:45.704Z,8.77
2023-12-10T00:24:13.415Z,8.40
2023-12-10T00:26:42.553Z,8.23
2023-12-10T00:29:12.553Z,8.17
2023-12-10T00:31:47.930Z,8.07
2023-12-10T00:34:18.821Z,7.17
2023-12-10T00:36:47.366Z,8.00
2023-12-10T00:39:25.665Z,7.77
2023-12-10T00:41:53.577Z,6.93
2023-12-10T00:44:21.651Z,7.40
2023-12-10T00:46:49.890Z,6.70
2023-12-10T00:49:18.447Z,6.93
2023-12-10T00:51:47.081Z,7.07
2023-12-10T00:54:18.040Z,6.43
2023-12-10T00:56:45.997Z,6.90
2023-12-10T00:59:14.127Z,6.40
2023-12-10T01:01:43.331Z,5.67
2023-12-10T01:04:11.158Z,5.77
2023-12-10T01:06:39.373Z,6.03
2023-12-10T01:09:07.598Z,5.67
2023-12-10T01:11:34.853Z,5.77
2023-12-10T01:14:04.207Z,5.47
2023-12-10T01:16:32.130Z,5.83
2023-12-10T01:18:59.772Z,6.17
2023-12-10T01:21:26.950Z,5.33
2023-12-10T01:23:57.784Z,5.73
2023-12-10T01:26:25.801Z,6.23
2023-12-10T01:28:53.672Z,5.63
2023-12-10T01:31:20.688Z,5.87
2023-12-10T01:33:49.413Z,5.13
2023-12-10T01:36:26.761Z,5.97
2023-12-10T01:38:54.728Z,5.60
2023-12-10T01:41:24.760Z,6.40
2023-12-10T01:43:54.427Z,5.40
2023-12-10T01:46:23.488Z,5.63
2023-12-10T01:48:54.958Z,5.53
2023-12-10T01:51:24.824Z,5.40
2023-12-10T01:53:54.230Z,5.53
2023-12-10T01:56:22.950Z,5.80
2023-12-10T01:58:50.926Z,6.23
2023-12-10T02:01:22.419Z,4.87
2023-12-10T02:03:51.679Z,5.73
2023-12-10T02:06:20.772Z,5.90
2023-12-10T02:08:50.684Z,5.33
2023-12-10T02:11:18.627Z,5.27
2023-12-10T02:13:47.283Z,5.80
2023-12-10T02:16:14.966Z,5.23
2023-12-10T02:18:44.071Z,5.53
2023-12-10T02:21:13.222Z,6.20
2023-12-10T02:23:48.965Z,5.73
2023-12-10T02:26:16.780Z,6.13
2023-12-10T02:28:45.474Z,6.00
2023-12-10T02:31:13.383Z,5.70
2023-12-10T02:33:44.684Z,5.53
2023-12-10T02:36:12.636Z,5.03
2023-12-10T02:38:40.608Z,5.00
2023-12-10T02:41:08.610Z,5.30
2023-12-10T02:43:40.080Z,5.00
2023-12-10T02:46:08.801Z,5.43
2023-12-10T02:48:36.676Z,5.50
2023-12-10T02:51:06.810Z,5.40
2023-12-10T02:53:34.996Z,5.20
2023-12-10T02:56:03.228Z,4.97
2023-12-10T02:58:31.499Z,5.10
2023-12-10T03:01:00.413Z,5.00
2023-12-10T03:03:30.314Z,5.23
2023-12-10T03:05:59.857Z,5.40
2023-12-10T03:08:28.203Z,5.43
2023-12-10T03:10:56.405Z,4.90
2023-12-10T03:13:24.847Z,5.53
2023-12-10T03:15:54.640Z,5.40
2023-12-10T03:18:22.975Z,5.13
2023-12-10T03:20:51.225Z,5.60
2023-12-10T03:23:20.140Z,5.57
2023-12-10T03:25:50.234Z,5.23
2023-12-10T03:28:19.821Z,5.13
2023-12-10T03:30:48.631Z,5.60
2023-12-10T03:33:28.772Z,5.67
2023-12-10T03:35:56.918Z,5.47
2023-12-10T03:38:25.793Z,4.90
2023-12-10T03:40:53.902Z,5.30
2023-12-10T03:43:21.978Z,5.40
2023-12-10T03:45:50.713Z,5.37
2023-12-10T03:48:20.233Z,5.40
2023-12-10T03:50:50.224Z,5.20
2023-12-10T03:53:20.086Z,5.43
2023-12-10T03:55:47.796Z,5.53
2023-12-10T03:58:16.285Z,5.30
2023-12-10T04:00:44.846Z,5.70
2023-12-10T04:03:13.451Z,5.33
2023-12-10T04:05:43.600Z,6.07
2023-12-10T04:08:12.308Z,5.80
2023-12-10T04:10:40.361Z,6.03
2023-12-10T04:13:09.642Z,6.60
2023-12-10T12:23:18.337Z,7.67
2023-12-10T12:25:45.861Z,8.80
2023-12-10T12:28:13.959Z,9.50
2023-12-10T12:30:41.228Z,8.47
2023-12-10T12:33:08.735Z,8.47
2023-12-10T12:35:35.968Z,9.70
2023-12-10T12:38:04.395Z,8.73
2023-12-10T12:40:32.380Z,7.95
2023-12-10T12:43:00.475Z,8.13
2023-12-10T12:45:27.630Z,9.10
2023-12-10T12:47:54.863Z,8.53
2023-12-10T12:50:22.249Z,8.13
2023-12-10T12:52:53.966Z,9.23
2023-12-10T12:55:22.995Z,10.20
2023-12-10T12:57:51.639Z,11.37
2023-12-10T13:00:19.777Z,13.80
2023-12-10T13:02:49.994Z,12.60
2023-12-10T13:05:21.566Z,9.83
2023-12-10T13:07:49.343Z,9.97
2023-12-10T13:10:16.847Z,10.23
2023-12-10T13:12:44.771Z,9.87
2023-12-10T13:15:11.931Z,9.83
2023-12-10T13:17:40.235Z,9.77
2023-12-10T13:20:08.537Z,11.80
2023-12-10T13:22:35.428Z,10.40
2023-12-10T13:25:04.688Z,11.17
2023-12-10T13:27:32.122Z,10.47
2023-12-10T13:32:43.263Z,9.90
2023-12-10T13:35:12.705Z,8.10
2023-12-10T13:37:40.539Z,8.47
2023-12-10T13:40:13.869Z,8.70
2023-12-10T16:57:12.490Z,4.13
2023-12-10T16:59:42.338Z,3.87
2023-12-10T17:02:09.238Z,4.57
2023-12-10T17:04:36.578Z,5.07
2023-12-10T17:07:03.861Z,5.03
2023-12-10T17:09:30.944Z,3.80
2023-12-10T17:11:57.869Z,4.17
2023-12-10T17:14:31.750Z,4.80
2023-12-10T17:16:58.581Z,4.70
2023-12-10T17:19:25.646Z,5.70
2023-12-10T17:21:53.860Z,5.07
2023-12-10T17:24:21.188Z,4.73
2023-12-10T17:26:56.935Z,4.17
2023-12-10T17:29:23.708Z,4.77
2023-12-10T17:31:50.685Z,4.60
2023-12-10T17:34:17.792Z,4.23
2023-12-10T17:36:44.838Z,4.27
2023-12-10T17:39:11.886Z,5.30
2023-12-10T17:41:38.852Z,4.00
2023-12-10T17:44:11.392Z,3.93
2023-12-10T17:46:38.625Z,4.07
2023-12-10T17:49:06.732Z,4.30
2023-12-10T17:51:43.966Z,4.17
2023-12-10T17:54:17.270Z,3.53
2023-12-10T17:56:44.769Z,4.20
2023-12-10T17:59:18.486Z,3.93
2023-12-10T18:02:02.068Z,3.97
2023-12-10T18:04:44.461Z,3.00
2023-12-10T18:07:38.356Z,3.00
2023-12-10T18:10:07.339Z,3.47
2023-12-10T18:12:42.632Z,3.00
2023-12-10T18:15:13.586Z,2.80
2023-12-10T18:17:40.555Z,2.97
2023-12-10T18:20:07.986Z,2.60
2023-12-10T18:22:41.158Z,2.23
2023-12-10T18:28:04.699Z,2.60
2023-12-10T23:12:17.454Z,4.40
2023-12-10T23:14:44.257Z,4.07
2023-12-10T23:17:11.065Z,3.97
2023-12-10T23:19:37.999Z,4.30
2023-12-10T23:22:05.167Z,3.77
2023-12-10T23:24:32.079Z,3.67
2023-12-10T23:26:59.318Z,3.60
2023-12-10T23:29:26.393Z,3.50
2023-12-10T23:31:53.231Z,4.37
2023-12-10T23:34:20.034Z,4.23
2023-12-10T23:36:47.311Z,3.83
2023-12-10T23:39:15.207Z,3.30
2023-12-10T23:41:41.989Z,3.20
2023-12-10T23:44:10.725Z,3.20
2023-12-10T23:46:40.472Z,3.33
2023-12-10T23:49:10.973Z,3.83
2023-12-10T23:51:40.133Z,3.47
2023-12-10T23:54:08.333Z,3.13
2023-12-10T23:56:35.384Z,3.53
2023-12-10T23:59:03.352Z,3.40
